Time;durP1;ratioP1;P1;durP2;ratioP2;P2;SDS_P1;SDS_P2;PMS_P1;PMS_P2;Temp;Humidity;BMP_temperature;BMP_pressure;BME280_temperature;BME280_humidity;BME280_pressure;Samples;Min_cycle;Max_cycle;Signal;HPM_P1;HPM_P2
2022/11/29 00:01:17;;;;;;;20.05;12.02;;;;;;;7.05;99.79;99684.03;4956782;28;20045;-92
2022/11/29 00:03:44;;;;;;;20.85;11.95;;;;;;;7.06;99.88;99683.06;4948906;28;20053;-91
2022/11/29 00:06:16;;;;;;;23.95;13.30;;;;;;;7.05;99.96;99680.56;4956988;28;20114;-91
2022/11/29 00:08:43;;;;;;;20.75;12.50;;;;;;;7.06;100.00;99682.22;4945546;28;20046;-92
2022/11/29 00:14:07;;;;;;;21.33;12.63;;;;;;;7.05;100.00;99677.94;4941524;28;20102;-91
2022/11/29 00:16:34;;;;;;;20.17;12.52;;;;;;;7.04;100.00;99679.69;4951228;28;20457;-90
2022/11/29 00:19:01;;;;;;;22.50;12.38;;;;;;;7.06;100.00;99683.06;4956408;28;20058;-90
2022/11/29 00:21:28;;;;;;;23.55;11.63;;;;;;;7.06;100.00;99683.06;4960288;28;20387;-92
2022/11/29 00:23:55;;;;;;;18.50;11.95;;;;;;;7.07;100.00;99679.50;4954602;28;20508;-92
2022/11/29 00:26:22;;;;;;;22.83;11.88;;;;;;;7.07;100.00;99682.13;4974269;28;20049;-91
2022/11/29 00:28:49;;;;;;;20.38;12.18;;;;;;;7.07;100.00;99675.97;4973316;28;20039;-91
2022/11/29 00:31:23;;;;;;;17.35;11.65;;;;;;;7.07;100.00;99676.84;4960043;28;20054;-91
2022/11/29 00:33:51;;;;;;;17.80;12.35;;;;;;;7.09;100.00;99679.34;4965887;28;20058;-91
2022/11/29 00:36:18;;;;;;;20.67;12.25;;;;;;;7.11;100.00;99682.72;4962363;28;20046;-91
2022/11/29 00:38:45;;;;;;;21.60;12.45;;;;;;;7.09;100.00;99679.34;4959918;28;20057;-86
2022/11/29 00:41:12;;;;;;;24.58;12.88;;;;;;;7.07;100.00;99671.56;4960414;28;20052;-91
2022/11/29 00:43:39;;;;;;;18.90;10.77;;;;;;;7.09;100.00;99677.53;4962791;28;20074;-91
2022/11/29 00:46:06;;;;;;;20.10;11.90;;;;;;;7.09;100.00;99682.00;4945682;28;20444;-91
2022/11/29 00:48:34;;;;;;;20.85;12.48;;;;;;;7.09;100.00;99682.00;4971573;28;20047;-91
2022/11/29 00:51:01;;;;;;;19.65;11.77;;;;;;;7.10;100.00;99683.69;4957248;28;20054;-91
2022/11/29 00:53:28;;;;;;;20.58;12.40;;;;;;;7.07;100.00;99681.25;4968286;28;20479;-91
2022/11/29 00:55:55;;;;;;;20.70;12.13;;;;;;;7.08;100.00;99686.44;4975945;28;20046;-91
2022/11/29 00:58:22;;;;;;;19.50;11.63;;;;;;;7.08;100.00;99685.59;4972454;28;20052;-90
2022/11/29 01:00:48;;;;;;;17.60;11.73;;;;;;;7.07;100.00;99678.63;4953276;28;20057;-86
2022/11/29 01:03:16;;;;;;;20.33;11.60;;;;;;;7.08;100.00;99681.16;4973826;28;20120;-91
2022/11/29 01:05:43;;;;;;;19.10;11.95;;;;;;;7.09;100.00;99684.63;4963737;28;20038;-91
2022/11/29 01:08:11;;;;;;;20.83;11.80;;;;;;;7.09;100.00;99690.75;4964153;28;20129;-91
2022/11/29 01:10:38;;;;;;;20.88;12.00;;;;;;;7.09;100.00;99687.28;4953321;28;20046;-91
2022/11/29 01:13:04;;;;;;;18.67;12.73;;;;;;;7.08;100.00;99690.88;4952935;28;20078;-91
2022/11/29 01:15:31;;;;;;;18.85;10.77;;;;;;;7.10;100.00;99694.25;4969786;28;20038;-91
2022/11/29 01:17:58;;;;;;;19.45;12.65;;;;;;;7.11;100.00;99695.94;4934768;28;20425;-91
2022/11/29 01:20:25;;;;;;;23.70;13.07;;;;;;;7.10;100.00;99689.81;4953374;28;20521;-92
2022/11/29 01:22:52;;;;;;;21.88;12.95;;;;;;;7.10;100.00;99692.44;4948732;28;20105;-90
2022/11/29 01:25:19;;;;;;;21.52;13.15;;;;;;;7.10;100.00;99700.38;4941656;28;20141;-91
2022/11/29 01:27:46;;;;;;;24.23;12.77;;;;;;;7.12;100.00;99695.81;4954440;28;20054;-90
2022/11/29 01:30:13;;;;;;;19.05;12.52;;;;;;;7.11;100.00;99699.41;4941947;28;20054;-90
2022/11/29 01:32:40;;;;;;;22.17;12.90;;;;;;;7.12;100.00;99698.47;4966776;28;20042;-91
2022/11/29 01:35:07;;;;;;;21.00;12.75;;;;;;;7.12;100.00;99695.81;4963110;28;20056;-90
2022/11/29 01:37:34;;;;;;;20.65;12.48;;;;;;;7.11;100.00;99688.00;4963847;28;20461;-90
2022/11/29 01:40:02;;;;;;;20.88;11.85;;;;;;;7.14;100.00;99703.59;4941714;28;20133;-90
2022/11/29 01:42:29;;;;;;;19.42;11.85;;;;;;;7.13;100.00;99694.84;4967274;28;20053;-90
2022/11/29 01:45:00;;;;;;;23.10;12.65;;;;;;;7.11;100.00;99690.66;4952355;28;20050;-91
2022/11/29 01:47:28;;;;;;;17.48;11.27;;;;;;;7.13;100.00;99699.28;4965466;28;20057;-90
2022/11/29 01:49:54;;;;;;;19.55;11.55;;;;;;;7.15;100.00;99698.22;4952401;28;20100;-92
2022/11/29 01:52:24;;;;;;;22.40;12.40;;;;;;;7.16;100.00;99704.34;4966552;28;20056;-91
2022/11/29 01:54:54;;;;;;;26.45;13.45;;;;;;;7.13;100.00;99697.50;4947342;28;20640;-91
2022/11/29 01:57:22;;;;;;;20.05;11.75;;;;;;;7.12;100.00;99687.91;4960427;28;20042;-91
2022/11/29 01:59:53;;;;;;;20.63;12.63;;;;;;;7.11;100.00;99686.19;4949500;28;20050;-91
2022/11/29 02:02:29;;;;;;;20.83;12.00;;;;;;;7.09;100.00;99703.94;4949755;28;20121;-91
2022/11/29 02:04:56;;;;;;;18.70;11.35;;;;;;;7.13;100.00;99701.94;4977466;28;20486;-91
2022/11/29 02:07:23;;;;;;;19.65;12.10;;;;;;;7.11;100.00;99699.41;4987353;28;20474;-91
2022/11/29 02:09:50;;;;;;;22.23;12.75;;;;;;;7.12;100.00;99693.19;4984866;28;20129;-91
2022/11/29 02:12:29;;;;;;;21.52;13.77;;;;;;;7.10;100.00;99697.72;4964771;28;20070;-91
2022/11/29 02:15:06;;;;;;;20.85;12.52;;;;;;;7.11;100.00;99695.94;4935849;28;20105;-91
2022/11/29 02:18:05;;;;;;;19.05;12.73;;;;;;;7.07;100.00;99695.34;4949667;28;20406;-92
2022/11/29 02:20:38;;;;;;;19.25;11.77;;;;;;;7.12;100.00;99701.09;4935202;28;20045;-91
2022/11/29 02:23:35;;;;;;;14.60;10.43;;;;;;;7.08;100.00;99701.44;4965215;28;20069;-91
2022/11/29 02:26:47;;;;;;;18.23;10.65;;;;;;;7.05;100.00;99699.88;4915814;28;20055;-92
2022/11/29 02:29:38;;;;;;;19.10;12.85;;;;;;;7.07;100.00;99700.63;4924429;28;20046;-91
2022/11/29 02:32:36;;;;;;;17.20;11.90;;;;;;;7.09;100.00;99697.84;4979801;28;20100;-91
2022/11/29 02:35:40;;;;;;;19.63;12.95;;;;;;;7.08;100.00;99693.53;4953227;28;20043;-91
2022/11/29 02:38:19;;;;;;;20.65;12.48;;;;;;;7.08;100.00;99699.63;4935742;28;20446;-91
2022/11/29 02:40:58;;;;;;;24.38;12.70;;;;;;;7.12;100.00;99695.81;4983151;28;20047;-90
2022/11/29 02:43:31;;;;;;;18.17;10.93;;;;;;;7.15;100.00;99692.94;4966535;28;20055;-91
2022/11/29 02:46:55;;;;;;;18.00;12.70;;;;;;;7.07;100.00;99694.47;4968180;28;20045;-91
2022/11/29 02:49:29;;;;;;;20.70;11.95;;;;;;;7.09;100.00;99693.38;4864554;28;20330;-91
2022/11/29 02:52:07;;;;;;;20.77;12.70;;;;;;;7.10;100.00;99705.66;4895931;29;20134;-91
2022/11/29 02:54:43;;;;;;;19.95;12.15;;;;;;;7.15;100.00;99703.50;4920725;28;20114;-91
2022/11/29 02:57:22;;;;;;;18.45;11.98;;;;;;;7.11;100.00;99704.69;4944554;28;20042;-91
2022/11/29 03:00:05;;;;;;;19.42;11.77;;;;;;;7.15;100.00;99697.38;4930192;28;20371;-91
2022/11/29 03:02:39;;;;;;;20.83;12.35;;;;;;;7.14;100.00;99699.16;4957989;28;20069;-90
2022/11/29 03:05:18;;;;;;;24.23;12.93;;;;;;;7.12;100.00;99702.88;4953860;28;20105;-91
2022/11/29 03:07:59;;;;;;;21.27;13.52;;;;;;;7.17;100.00;99700.72;4971544;28;20049;-88
2022/11/29 03:10:31;;;;;;;25.13;14.48;;;;;;;7.16;100.00;99706.97;4920264;28;20125;-90
2022/11/29 03:12:58;;;;;;;25.90;15.05;;;;;;;7.17;100.00;99708.66;4973297;28;20125;-90
2022/11/29 03:15:28;;;;;;;22.17;13.13;;;;;;;7.16;100.00;99707.81;4958404;28;20065;-91
2022/11/29 03:18:14;;;;;;;28.83;15.50;;;;;;;7.18;100.00;99719.09;4954480;28;20082;-91
2022/11/29 03:21:12;;;;;;;23.48;14.80;;;;;;;7.14;100.00;99712.38;4949992;28;20051;-92
2022/11/29 03:23:46;;;;;;;26.70;15.00;;;;;;;7.14;100.00;99720.28;4911499;28;20050;-92
2022/11/29 03:26:18;;;;;;;30.88;15.23;;;;;;;7.17;100.00;99716.56;4954175;28;20409;-91
2022/11/29 03:29:16;;;;;;;22.75;13.90;;;;;;;7.13;100.00;99723.06;4986650;28;20085;-91
2022/11/29 03:32:11;;;;;;;22.33;13.93;;;;;;;7.10;100.00;99718.84;4916778;28;20046;-91
2022/11/29 03:35:04;;;;;;;26.33;15.10;;;;;;;7.10;100.00;99720.66;4903147;28;20050;-91
2022/11/29 03:37:54;;;;;;;24.45;13.80;;;;;;;7.14;100.00;99722.94;4914580;28;20841;-91
2022/11/29 03:40:47;;;;;;;24.60;14.85;;;;;;;7.13;100.00;99718.63;4918200;28;20043;-91
2022/11/29 03:43:29;;;;;;;23.95;14.00;;;;;;;7.11;100.00;99723.16;4920669;28;20034;-90
2022/11/29 03:46:22;;;;;;;24.57;13.47;;;;;;;7.11;100.00;99727.63;4940633;28;20502;-90
2022/11/29 03:48:56;;;;;;;26.23;14.02;;;;;;;7.15;100.00;99727.28;4859432;28;20071;-90
2022/11/29 03:51:50;;;;;;;24.30;13.57;;;;;;;7.15;100.00;99727.28;4903581;28;20052;-92
2022/11/29 03:54:25;;;;;;;25.13;13.93;;;;;;;7.16;100.00;99733.38;4898265;28;20510;-91
2022/11/29 03:56:52;;;;;;;19.67;12.32;;;;;;;7.19;100.00;99735.78;4911446;28;20135;-90
2022/11/29 03:59:40;;;;;;;21.55;12.75;;;;;;;7.13;100.00;99737.09;4922111;28;20058;-91
2022/11/29 04:02:23;;;;;;;24.10;13.48;;;;;;;7.16;100.00;99736.84;4884866;28;20051;-91
2022/11/29 04:05:09;;;;;;;20.63;11.95;;;;;;;7.14;100.00;99740.56;4851563;29;20075;-91
2022/11/29 04:07:56;;;;;;;23.20;12.52;;;;;;;7.14;100.00;99740.56;4842058;29;20121;-90
2022/11/29 04:10:41;;;;;;;26.92;13.80;;;;;;;7.18;100.00;99734.13;4846358;29;20061;-90
2022/11/29 04:13:56;;;;;;;26.00;13.02;;;;;;;7.10;100.00;99739.16;4871366;29;20075;-91
2022/11/29 04:16:53;;;;;;;23.58;11.93;;;;;;;7.11;100.00;99733.72;4814522;29;20057;-90
2022/11/29 04:19:58;;;;;;;23.02;13.68;;;;;;;7.13;100.00;99739.75;4850771;28;20384;-90
2022/11/29 04:22:39;;;;;;;21.90;12.32;;;;;;;7.12;100.00;99738.06;4860380;28;20050;-91
2022/11/29 04:25:40;;;;;;;28.98;13.88;;;;;;;7.13;100.00;99742.38;4916393;28;20047;-92
2022/11/29 04:28:37;;;;;;;25.15;12.13;;;;;;;7.15;100.00;99743.13;4927304;28;20403;-91
2022/11/29 04:31:16;;;;;;;25.67;13.48;;;;;;;7.14;100.00;99744.06;4919655;28;20517;-91
2022/11/29 04:34:06;;;;;;;31.00;12.85;;;;;;;7.13;100.00;99744.19;4886749;28;20043;-91
2022/11/29 04:37:04;;;;;;;26.25;12.63;;;;;;;7.13;100.00;99747.66;4911464;28;20046;-91
2022/11/29 04:39:41;;;;;;;25.00;12.35;;;;;;;7.14;100.00;99757.25;4960185;28;20043;-92
2022/11/29 04:42:20;;;;;;;25.40;12.07;;;;;;;7.19;100.00;99762.19;4951279;28;20126;-91
2022/11/29 04:45:14;;;;;;;25.08;12.80;;;;;;;7.13;100.00;99757.38;4917819;28;20103;-91
2022/11/29 04:47:44;;;;;;;22.90;12.27;;;;;;;7.19;100.00;99767.47;4952966;28;20101;-92
2022/11/29 04:50:23;;;;;;;29.05;13.65;;;;;;;7.16;100.00;99762.44;4936316;28;20750;-92
2022/11/29 04:53:40;;;;;;;26.70;12.90;;;;;;;7.13;100.00;99760.03;4940990;28;20073;-92
2022/11/29 04:56:28;;;;;;;26.13;13.30;;;;;;;7.15;100.00;99761.59;4902023;28;20045;-91
2022/11/29 04:58:55;;;;;;;24.08;11.65;;;;;;;7.21;100.00;99775.28;4906795;28;20071;-92
2022/11/29 05:01:35;;;;;;;29.73;11.75;;;;;;;7.22;100.00;99769.88;5004101;28;20053;-92
2022/11/29 05:04:18;;;;;;;26.13;12.50;;;;;;;7.21;100.00;99776.13;4979042;28;20053;-91
2022/11/29 05:07:37;;;;;;;26.50;11.93;;;;;;;7.16;100.00;99775.63;4988205;28;20045;-93
2022/11/29 05:10:22;;;;;;;32.55;11.95;;;;;;;7.16;100.00;99779.09;4885063;28;20492;-91
2022/11/29 05:13:07;;;;;;;23.20;10.95;;;;;;;7.21;100.00;99786.69;4958796;28;20128;-90
2022/11/29 05:16:13;;;;;;;24.40;11.98;;;;;;;7.18;100.00;99786.94;4962710;28;20040;-91
2022/11/29 05:18:46;;;;;;;26.63;11.95;;;;;;;7.23;100.00;99789.22;4930325;28;20045;-93
2022/11/29 05:21:30;;;;;;;24.63;11.25;;;;;;;7.18;100.00;99794.84;4971008;28;20041;-94
2022/11/29 05:24:06;;;;;;;29.38;12.25;;;;;;;7.20;100.00;99795.59;4933574;28;20455;-90
2022/11/29 05:26:33;;;;;;;22.98;11.30;;;;;;;7.24;100.00;99791.75;4991046;28;20056;-91
2022/11/29 05:29:14;;;;;;;25.40;11.70;;;;;;;7.24;100.00;99790.91;5006635;28;20055;-90
2022/11/29 05:32:11;;;;;;;25.35;11.98;;;;;;;7.18;100.00;99795.69;4986167;28;20040;-91
2022/11/29 05:35:04;;;;;;;23.20;11.93;;;;;;;7.21;100.00;99801.69;4948925;28;20090;-92
2022/11/29 05:37:46;;;;;;;24.08;10.38;;;;;;;7.23;100.00;99797.16;4966557;28;20047;-91
2022/11/29 05:40:15;;;;;;;23.80;11.07;;;;;;;7.25;100.00;99798.72;4933957;28;20103;-92
2022/11/29 05:43:06;;;;;;;25.38;12.38;;;;;;;7.20;100.00;99803.50;4937928;28;20129;-92
2022/11/29 05:45:35;;;;;;;22.17;10.57;;;;;;;7.25;100.00;99800.50;4905829;28;20549;-92
2022/11/29 05:48:02;;;;;;;21.33;10.30;;;;;;;7.24;100.00;99798.81;4935350;28;20116;-92
2022/11/29 05:50:36;;;;;;;29.05;12.18;;;;;;;7.20;100.00;99802.66;4967686;28;20038;-92
2022/11/29 05:53:20;;;;;;;21.27;11.20;;;;;;;7.20;100.00;99811.44;4931137;28;20054;-91
2022/11/29 05:56:05;;;;;;;26.00;12.25;;;;;;;7.21;100.00;99807.81;4927465;28;20057;-92
2022/11/29 05:58:42;;;;;;;21.63;10.73;;;;;;;7.25;100.00;99814.56;4933425;28;20531;-92
2022/11/29 06:01:27;;;;;;;22.75;10.88;;;;;;;7.22;100.00;99817.41;4949770;28;20112;-92
2022/11/29 06:04:27;;;;;;;21.20;10.48;;;;;;;7.24;100.00;99819.94;4921212;28;20544;-91
2022/11/29 06:07:02;;;;;;;23.35;10.88;;;;;;;7.26;100.00;99821.53;4910350;28;20401;-92
2022/11/29 06:09:47;;;;;;;20.88;9.77;;;;;;;7.26;100.00;99823.31;4976248;28;20150;-92
2022/11/29 06:12:22;;;;;;;23.10;11.65;;;;;;;7.25;100.00;99826.91;4923041;28;20462;-91
2022/11/29 06:14:55;;;;;;;25.27;11.35;;;;;;;7.29;100.00;99833.66;4921571;28;20453;-90
2022/11/29 06:17:47;;;;;;;22.65;12.00;;;;;;;7.23;100.00;99831.50;4982007;28;20113;-88
2022/11/29 06:20:33;;;;;;;19.17;10.10;;;;;;;7.23;100.00;99829.69;4957824;28;20042;-88
2022/11/29 06:23:07;;;;;;;22.75;10.65;;;;;;;7.26;100.00;99834.72;4944143;28;20062;-88
2022/11/29 06:25:57;;;;;;;22.50;10.65;;;;;;;7.22;100.00;99835.91;4957587;28;20050;-87
2022/11/29 06:28:47;;;;;;;25.98;11.43;;;;;;;7.25;100.00;99830.41;4924205;28;20049;-87
2022/11/29 06:31:17;;;;;;;19.98;10.77;;;;;;;7.27;100.00;99839.03;4945180;28;20047;-87
2022/11/29 06:34:08;;;;;;;24.88;11.10;;;;;;;7.27;100.00;99838.22;4955471;28;20455;-86
2022/11/29 06:36:37;;;;;;;23.33;10.65;;;;;;;7.30;100.00;99846.75;4981701;28;20058;-87
2022/11/29 06:39:04;;;;;;;20.55;10.25;;;;;;;7.32;100.00;99846.63;4964972;28;20046;-87
2022/11/29 06:41:31;;;;;;;22.85;10.55;;;;;;;7.31;100.00;99848.44;4941297;28;20050;-87
2022/11/29 06:43:58;;;;;;;24.50;11.98;;;;;;;7.31;100.00;99847.59;4975656;28;20045;-87
2022/11/29 06:46:47;;;;;;;22.85;10.50;;;;;;;7.26;100.00;99855.03;4954339;28;20045;-87
2022/11/29 06:49:28;;;;;;;25.08;11.55;;;;;;;7.26;100.00;99862.94;4925695;28;20410;-88
2022/11/29 06:52:19;;;;;;;25.58;12.02;;;;;;;7.32;100.00;99859.84;4965967;28;20046;-87
2022/11/29 06:54:46;;;;;;;24.73;11.88;;;;;;;7.30;100.00;99861.75;4925111;28;20058;-88
2022/11/29 06:57:16;;;;;;;22.88;11.45;;;;;;;7.32;100.00;99863.31;4988587;28;20042;-87
2022/11/29 07:00:15;;;;;;;31.90;15.43;;;;;;;7.24;100.00;99870.97;4966841;28;20046;-88
2022/11/29 07:02:49;;;;;;;23.90;12.00;;;;;;;7.31;100.00;99874.00;4898246;28;20128;-88
2022/11/29 07:05:30;;;;;;;25.70;13.05;;;;;;;7.26;100.00;99866.44;4956145;28;20054;-87
2022/11/29 07:08:02;;;;;;;22.02;11.32;;;;;;;7.30;100.00;99865.25;4976153;28;20049;-87
2022/11/29 07:10:32;;;;;;;21.60;10.82;;;;;;;7.31;100.00;99866.94;4976092;28;20401;-89
2022/11/29 07:12:59;;;;;;;25.60;12.23;;;;;;;7.34;100.00;99873.78;4957958;28;20508;-89
2022/11/29 07:15:27;;;;;;;25.83;12.48;;;;;;;7.33;100.00;99872.94;4978258;28;20514;-88
2022/11/29 07:18:01;;;;;;;22.90;12.15;;;;;;;7.31;100.00;99876.66;4948569;28;20046;-88
2022/11/29 07:20:44;;;;;;;23.05;12.23;;;;;;;7.32;100.00;99881.81;4968090;28;20053;-87
2022/11/29 07:23:43;;;;;;;24.00;12.15;;;;;;;7.29;100.00;99883.84;4992290;28;20042;-86
2022/11/29 07:26:18;;;;;;;20.77;11.95;;;;;;;7.33;100.00;99890.59;4947784;28;20046;-86
2022/11/29 07:29:00;;;;;;;22.42;11.55;;;;;;;7.32;100.00;99889.72;4953983;28;20046;-88
2022/11/29 07:31:34;;;;;;;25.00;12.55;;;;;;;7.36;100.00;99893.84;4967998;28;20043;-87
2022/11/29 07:34:11;;;;;;;28.65;13.82;;;;;;;7.34;100.00;99887.00;4967392;28;20050;-89
2022/11/29 07:37:10;;;;;;;26.65;12.75;;;;;;;7.32;100.00;99899.47;4927383;28;20438;-89
2022/11/29 07:39:40;;;;;;;25.17;13.43;;;;;;;7.37;100.00;99897.31;4922471;28;20046;-87
2022/11/29 07:42:25;;;;;;;30.17;13.65;;;;;;;7.38;100.00;99899.03;4973129;28;20404;-87
2022/11/29 07:45:10;;;;;;;29.45;13.40;;;;;;;7.37;100.00;99902.59;4995533;28;20064;-88
2022/11/29 07:47:37;;;;;;;29.45;13.60;;;;;;;7.39;100.00;99903.34;4997900;28;20049;-88
2022/11/29 07:50:04;;;;;;;26.25;12.38;;;;;;;7.41;100.00;99901.44;4977023;28;20046;-88
2022/11/29 07:52:32;;;;;;;28.75;12.82;;;;;;;7.42;100.00;99908.38;4970706;28;20504;-87
2022/11/29 07:54:59;;;;;;;24.30;11.40;;;;;;;7.43;100.00;99915.38;4976150;28;20132;-87
2022/11/29 07:57:25;;;;;;;24.70;12.35;;;;;;;7.45;100.00;99915.25;4969106;28;20043;-88
2022/11/29 07:59:52;;;;;;;30.52;13.85;;;;;;;7.44;100.00;99914.41;4969033;28;20049;-87
2022/11/29 08:02:29;;;;;;;31.20;13.73;;;;;;;7.40;100.00;99915.56;4972297;28;20047;-88
2022/11/29 08:04:56;;;;;;;21.65;12.85;;;;;;;7.45;100.00;99913.44;4935381;28;20046;-87
2022/11/29 08:07:23;;;;;;;30.20;12.18;;;;;;;7.46;100.00;99917.78;4959138;28;20062;-87
2022/11/29 08:09:50;;;;;;;26.92;12.43;;;;;;;7.47;100.00;99922.09;4963101;28;20645;-88
2022/11/29 08:12:17;;;;;;;23.45;12.50;;;;;;;7.46;100.00;99923.06;4974452;28;20076;-87
2022/11/29 08:14:44;;;;;;;25.90;12.10;;;;;;;7.48;100.00;99915.00;4971213;28;20053;-88
2022/11/29 08:17:11;;;;;;;24.02;11.70;;;;;;;7.48;100.00;99926.44;4920692;28;20069;-88
2022/11/29 08:19:38;;;;;;;23.23;12.32;;;;;;;7.51;100.00;99930.66;4980682;28;20046;-87
2022/11/29 08:22:04;;;;;;;24.52;13.63;;;;;;;7.50;100.00;99932.44;4966732;28;20047;-87
2022/11/29 08:24:31;;;;;;;23.95;13.02;;;;;;;7.51;100.00;99941.22;4966673;28;20048;-88
2022/11/29 08:26:58;;;;;;;28.63;12.27;;;;;;;7.50;100.00;99942.16;4979473;28;20050;-87
2022/11/29 08:29:25;;;;;;;22.50;11.63;;;;;;;7.49;100.00;99943.13;4950544;28;20398;-87
2022/11/29 08:31:52;;;;;;;23.17;10.27;;;;;;;7.49;100.00;99941.31;4965003;28;20565;-87
2022/11/29 08:34:21;;;;;;;17.58;10.02;;;;;;;7.47;100.00;99945.88;4958059;28;20071;-87
2022/11/29 08:36:48;;;;;;;18.50;10.60;;;;;;;7.47;100.00;99945.88;4960535;28;20070;-88
2022/11/29 08:39:16;;;;;;;24.00;10.07;;;;;;;7.47;100.00;99945.88;4971076;28;20494;-88
2022/11/29 08:41:42;;;;;;;21.65;10.45;;;;;;;7.49;100.00;99948.41;4972856;28;20042;-88
2022/11/29 08:44:09;;;;;;;18.80;9.77;;;;;;;7.48;100.00;99950.22;4970849;28;20138;-88
2022/11/29 08:49:21;;;;;;;19.35;8.82;;;;;;;7.49;100.00;99951.91;4951394;28;20053;-88
2022/11/29 08:51:51;;;;;;;17.63;9.23;;;;;;;7.45;100.00;99949.59;4944958;28;20050;-87
2022/11/29 08:54:17;;;;;;;17.20;7.68;;;;;;;7.48;100.00;99950.22;4942008;28;20373;-87
2022/11/29 08:56:44;;;;;;;17.08;8.55;;;;;;;7.51;100.00;99950.00;4951519;28;20042;-88
2022/11/29 08:59:31;;;;;;;14.30;8.02;;;;;;;7.52;100.00;99951.66;4951425;28;20617;-88
2022/11/29 09:01:58;;;;;;;16.20;8.57;;;;;;;7.52;100.00;99956.94;4970863;28;20120;-88
2022/11/29 09:04:25;;;;;;;14.90;8.15;;;;;;;7.53;100.00;99961.28;4955019;28;20457;-89
2022/11/29 09:06:52;;;;;;;16.30;8.45;;;;;;;7.57;100.00;99959.25;4973535;28;20375;-87
2022/11/29 09:09:18;;;;;;;16.73;9.20;;;;;;;7.56;100.00;99966.34;4978040;28;20049;-88
2022/11/29 09:11:45;;;;;;;16.55;8.55;;;;;;;7.56;100.00;99966.34;4956893;28;20055;-89
2022/11/29 09:14:15;;;;;;;15.73;8.70;;;;;;;7.57;100.00;99972.47;4957918;28;20504;-87
2022/11/29 09:16:42;;;;;;;15.88;8.73;;;;;;;7.57;100.00;99969.81;4977537;28;20449;-87
2022/11/29 09:19:09;;;;;;;15.93;8.68;;;;;;;7.59;100.00;99981.13;4960558;28;20054;-88
2022/11/29 09:21:36;;;;;;;21.13;9.55;;;;;;;7.59;100.00;99978.50;4970966;28;20053;-87
2022/11/29 09:24:05;;;;;;;17.55;8.55;;;;;;;7.59;100.00;99981.97;4939275;28;20486;-87
2022/11/29 09:26:34;;;;;;;19.35;9.07;;;;;;;7.60;100.00;99988.09;4953640;28;20050;-87
2022/11/29 09:29:03;;;;;;;15.40;8.60;;;;;;;7.60;100.00;99982.81;4955885;28;20455;-88
2022/11/29 09:31:31;;;;;;;13.18;8.32;;;;;;;7.62;100.00;99986.19;4955209;28;20074;-87
2022/11/29 09:33:58;;;;;;;14.00;8.07;;;;;;;7.63;100.00;99995.78;4970299;28;20051;-88
2022/11/29 09:36:25;;;;;;;13.60;8.43;;;;;;;7.65;100.00;99990.41;4972154;28;20409;-87
2022/11/29 09:38:55;;;;;;;20.27;10.45;;;;;;;7.64;100.00;99997.50;4967698;28;20143;-88
2022/11/29 09:41:39;;;;;;;15.70;9.05;;;;;;;7.61;100.00;99993.28;4961218;28;20426;-88
2022/11/29 09:44:21;;;;;;;17.50;9.65;;;;;;;7.60;100.00;99999.50;4959186;28;20441;-88
2022/11/29 09:47:07;;;;;;;19.15;9.45;;;;;;;7.59;99.84;99997.81;4982902;28;20053;-87
2022/11/29 09:50:11;;;;;;;20.73;9.85;;;;;;;7.60;99.80;99996.84;4922506;28;20493;-87
2022/11/29 09:52:56;;;;;;;17.27;8.35;;;;;;;7.62;99.90;100002.03;4940768;28;20057;-87
2022/11/29 09:55:49;;;;;;;16.92;8.98;;;;;;;7.66;99.92;100002.66;4988667;28;20482;-88
2022/11/29 09:58:19;;;;;;;14.80;9.23;;;;;;;7.68;99.42;100000.75;4930514;28;20050;-87
2022/11/29 10:00:50;;;;;;;18.45;9.57;;;;;;;7.71;99.41;100004.03;4970357;28;20457;-88
2022/11/29 10:03:27;;;;;;;13.50;8.98;;;;;;;7.71;99.35;100001.38;4923226;28;20066;-87
2022/11/29 10:06:03;;;;;;;17.35;9.27;;;;;;;7.76;99.64;100001.00;4942868;28;20053;-88
2022/11/29 10:08:35;;;;;;;17.73;9.35;;;;;;;7.78;99.65;100007.03;4947647;28;20570;-87
2022/11/29 10:11:13;;;;;;;13.35;8.02;;;;;;;7.76;99.14;100009.81;4990601;28;20050;-87
2022/11/29 10:13:44;;;;;;;14.43;8.00;;;;;;;7.79;99.52;100009.56;4936983;28;20042;-88
2022/11/29 10:16:21;;;;;;;15.52;9.20;;;;;;;7.77;99.44;100010.66;4904795;28;20049;-87
2022/11/29 10:18:57;;;;;;;10.98;7.05;;;;;;;7.79;99.46;100008.75;4985184;28;20034;-88
2022/11/29 10:21:28;;;;;;;15.43;8.27;;;;;;;7.82;99.63;100008.50;4954745;28;20043;-87
2022/11/29 10:23:58;;;;;;;13.40;8.32;;;;;;;7.84;99.81;100011.88;4938244;28;20062;-88
2022/11/29 10:26:25;;;;;;;17.75;8.90;;;;;;;7.85;99.90;100013.56;4961770;28;20042;-88
2022/11/29 10:29:00;;;;;;;14.25;8.65;;;;;;;7.87;99.77;100006.38;4928501;28;21054;-87
2022/11/29 10:31:41;;;;;;;13.65;8.43;;;;;;;7.82;99.56;100012.00;4958101;28;20465;-88
2022/11/29 10:34:16;;;;;;;16.08;10.18;;;;;;;7.86;99.72;100007.34;4940263;28;20132;-87
2022/11/29 10:36:46;;;;;;;14.27;8.43;;;;;;;7.89;99.54;100011.56;4923202;28;20039;-87
2022/11/29 10:39:20;;;;;;;11.60;7.68;;;;;;;7.86;99.35;100002.03;4951684;28;20054;-88
2022/11/29 10:41:51;;;;;;;14.82;8.52;;;;;;;7.88;99.36;100001.91;4953874;28;20042;-88
2022/11/29 10:44:19;;;;;;;13.50;8.52;;;;;;;7.89;99.54;100000.97;4976235;28;20049;-86
2022/11/29 10:46:45;;;;;;;14.27;8.98;;;;;;;7.89;99.58;99999.16;4956731;28;20042;-88
2022/11/29 10:49:15;;;;;;;13.95;8.48;;;;;;;7.91;99.45;100001.69;4967260;28;20355;-87
2022/11/29 10:51:43;;;;;;;15.02;8.52;;;;;;;7.93;99.47;100010.34;4960756;28;21225;-87
2022/11/29 10:54:26;;;;;;;14.57;8.23;;;;;;;7.90;99.21;100003.50;4948972;28;20105;-88
2022/11/29 10:56:55;;;;;;;14.80;8.60;;;;;;;7.93;99.33;100005.91;4965039;28;20051;-87
2022/11/29 10:59:27;;;;;;;16.75;9.40;;;;;;;7.93;98.96;100003.25;4950977;28;20047;-88
2022/11/29 11:01:54;;;;;;;14.40;8.57;;;;;;;7.94;99.35;100002.31;4939499;28;20047;-88
2022/11/29 11:04:26;;;;;;;12.95;8.43;;;;;;;7.94;99.04;99998.84;4967477;28;20108;-87
2022/11/29 11:06:58;;;;;;;12.88;8.32;;;;;;;7.94;99.09;100004.13;4976344;28;20046;-88
2022/11/29 11:09:33;;;;;;;15.18;8.38;;;;;;;7.94;99.05;99999.66;4968067;28;20414;-89
2022/11/29 11:12:03;;;;;;;10.98;7.65;;;;;;;7.96;99.35;100004.81;4962402;28;20050;-87
2022/11/29 11:14:36;;;;;;;13.63;7.50;;;;;;;7.97;99.09;100002.06;4971842;28;20077;-87
2022/11/29 11:17:24;;;;;;;13.13;7.75;;;;;;;7.93;98.79;99997.13;4941950;28;20046;-88
2022/11/29 11:20:00;;;;;;;16.48;8.88;;;;;;;7.98;99.01;100000.25;4955178;28;20430;-87
2022/11/29 11:22:27;;;;;;;14.82;8.48;;;;;;;8.02;99.09;99991.16;4988664;28;20073;-89
2022/11/29 11:24:59;;;;;;;15.02;8.15;;;;;;;8.02;99.18;99996.44;4955798;28;20046;-89
2022/11/29 11:27:38;;;;;;;15.73;9.47;;;;;;;8.03;99.38;99991.03;4983099;28;20065;-88
2022/11/29 11:30:20;;;;;;;14.02;7.97;;;;;;;7.99;99.09;99988.75;4958968;28;20465;-87
2022/11/29 11:33:07;;;;;;;14.68;8.23;;;;;;;7.99;99.09;99991.41;4952101;28;20046;-87
2022/11/29 11:35:36;;;;;;;10.55;7.53;;;;;;;8.06;99.13;99995.25;4987036;28;20065;-88
2022/11/29 11:38:02;;;;;;;13.38;7.90;;;;;;;8.05;99.00;99989.09;4950781;28;20070;-88
2022/11/29 11:40:29;;;;;;;14.55;8.98;;;;;;;8.10;99.00;99999.34;4998037;28;20038;-88
2022/11/29 11:42:58;;;;;;;12.25;7.53;;;;;;;8.11;98.60;100000.19;4976271;28;20046;-88
2022/11/29 11:45:35;;;;;;;12.18;9.18;;;;;;;8.07;98.72;99998.75;4948404;28;20075;-88
2022/11/29 11:48:11;;;;;;;13.27;8.73;;;;;;;8.11;98.85;100000.19;4938114;28;20429;-87
2022/11/29 11:51:04;;;;;;;14.15;7.63;;;;;;;8.07;98.88;100004.03;4953301;28;20047;-88
2022/11/29 11:53:35;;;;;;;12.25;7.53;;;;;;;8.15;98.98;100004.28;4940919;28;20046;-87
2022/11/29 11:56:05;;;;;;;10.07;7.00;;;;;;;8.13;98.66;100003.56;5003896;28;20055;-88
2022/11/29 11:58:53;;;;;;;10.63;7.35;;;;;;;8.08;98.58;100013.66;4975852;28;20046;-88
2022/11/29 12:01:27;;;;;;;13.27;7.68;;;;;;;8.11;98.76;100008.13;4927837;28;20051;-88
2022/11/29 12:04:03;;;;;;;11.65;7.32;;;;;;;8.09;98.51;100023.25;4943592;28;20489;-88
2022/11/29 12:06:36;;;;;;;17.02;8.95;;;;;;;8.14;99.03;100007.88;4984111;28;20070;-88